Time;durP1;ratioP1;P1;durP2;ratioP2;P2;SDS_P1;SDS_P2;PMS_P1;PMS_P2;Temp;Humidity;BMP_temperature;BMP_pressure;BME280_temperature;BME280_humidity;BME280_pressure;Samples;Min_cycle;Max_cycle;Signal;HPM_P1;HPM_P2
2024/01/20 00:01:32;;;;;;;;;;;11.40;39.70;;;11.49;42.32;101640.91;5012913;28;19931;-37
2024/01/20 00:04:00;;;;;;;;;;;11.40;39.80;;;11.49;42.51;101648.44;5014081;28;20385;-38
2024/01/20 00:06:29;;;;;;;;;;;11.40;39.80;;;11.48;43.25;101657.56;5017273;28;20297;-37
2024/01/20 00:08:58;;;;;;;;;;;11.30;39.80;;;11.47;42.92;101644.78;5013769;28;19929;-37
2024/01/20 00:11:26;;;;;;;;;;;11.40;39.90;;;11.50;42.83;101652.78;5012686;28;19925;-36
2024/01/20 00:13:54;;;;;;;;;;;11.40;39.80;;;11.52;42.92;101658.88;5012789;28;19939;-37
2024/01/20 00:16:23;;;;;;;;;;;11.40;39.90;;;11.48;42.97;101649.13;5013495;28;19926;-36
2024/01/20 00:18:51;;;;;;;;;;;11.30;39.80;;;11.50;42.67;101645.25;5013726;28;20548;-37
2024/01/20 00:21:19;;;;;;;;;;;11.40;39.80;;;11.49;43.22;101648.44;5012537;28;19949;-39
2024/01/20 00:23:48;;;;;;;;;;;11.40;39.80;;;11.50;43.14;101650.25;5013212;28;19937;-38
2024/01/20 00:26:17;;;;;;;;;;;11.40;39.80;;;11.50;42.46;101647.75;5013401;28;19926;-38
2024/01/20 00:28:45;;;;;;;;;;;11.30;39.80;;;11.52;42.63;101638.81;5013467;28;20286;-36
2024/01/20 00:31:13;;;;;;;;;;;11.40;39.80;;;11.49;42.15;101644.31;5016653;28;20286;-39
2024/01/20 00:33:42;;;;;;;;;;;11.40;39.80;;;11.51;42.69;101652.03;5016719;28;19925;-37
2024/01/20 00:36:10;;;;;;;;;;;11.40;39.80;;;11.52;42.84;101643.81;5016891;28;20309;-36
2024/01/20 00:38:39;;;;;;;;;;;11.40;39.80;;;11.52;42.35;101659.78;5016500;28;19931;-36
2024/01/20 00:41:07;;;;;;;;;;;11.40;39.80;;;11.52;42.73;101658.88;5015656;28;19948;-38
2024/01/20 00:43:36;;;;;;;;;;;11.40;39.80;;;11.50;42.94;101660.28;5016766;28;19926;-37
2024/01/20 00:46:04;;;;;;;;;;;11.40;39.80;;;11.49;42.85;101668.50;5016592;28;19929;-37
2024/01/20 00:48:32;;;;;;;;;;;11.40;39.80;;;11.53;42.71;101660.72;5016744;28;19953;-36
2024/01/20 00:51:00;;;;;;;;;;;11.40;39.80;;;11.52;42.78;101653.88;5016294;28;19968;-39
2024/01/20 00:53:28;;;;;;;;;;;11.40;39.80;;;11.52;42.49;101658.88;5017111;28;19965;-37
2024/01/20 00:55:56;;;;;;;;;;;11.40;39.80;;;11.53;42.88;101650.66;5017601;28;20301;-36
2024/01/20 00:58:24;;;;;;;;;;;11.40;39.80;;;11.52;42.37;101652.28;5017718;28;19925;-37
2024/01/20 01:00:53;;;;;;;;;;;11.40;39.70;;;11.51;42.69;101657.06;5009368;28;20384;-37
2024/01/20 01:03:22;;;;;;;;;;;11.40;39.70;;;11.50;42.46;101650.25;5017469;28;19976;-37
2024/01/20 01:05:49;;;;;;;;;;;11.40;39.80;;;11.54;42.60;101657.50;5017167;28;19975;-36
2024/01/20 01:08:17;;;;;;;;;;;11.40;39.70;;;11.53;42.84;101660.72;5017310;28;19930;-38
2024/01/20 01:10:46;;;;;;;;;;;11.40;39.70;;;11.51;42.74;101657.97;5017213;28;20435;-36
2024/01/20 01:13:14;;;;;;;;;;;11.40;39.80;;;11.52;42.43;101658.88;5016942;28;20016;-36
2024/01/20 01:15:42;;;;;;;;;;;11.40;39.80;;;11.52;42.39;101658.88;5019064;28;19925;-36
2024/01/20 01:18:11;;;;;;;;;;;11.40;39.70;;;11.53;42.85;101673.25;5020048;28;19929;-37
2024/01/20 01:20:39;;;;;;;;;;;11.40;39.80;;;11.54;42.29;101672.56;5020327;28;19930;-36
2024/01/20 01:23:07;;;;;;;;;;;11.40;39.70;;;11.54;42.69;101672.56;5020872;28;19979;-36
2024/01/20 01:25:35;;;;;;;;;;;11.40;39.80;;;11.55;43.08;101669.38;5020231;28;19925;-37
2024/01/20 01:28:03;;;;;;;;;;;11.40;39.70;;;11.53;42.60;101673.25;5020978;28;19930;-37
2024/01/20 01:30:31;;;;;;;;;;;11.40;39.80;;;11.53;42.23;101675.78;5021316;28;19932;-37
2024/01/20 01:32:59;;;;;;;;;;;11.40;39.80;;;11.55;42.79;101681.94;5018754;28;19947;-37
2024/01/20 01:35:28;;;;;;;;;;;11.40;39.70;;;11.55;42.80;101684.44;5020649;28;19933;-38
2024/01/20 01:37:58;;;;;;;;;;;11.40;39.70;;;11.54;42.40;101692.66;5013129;28;20354;-36
2024/01/20 01:40:26;;;;;;;;;;;11.40;39.80;;;11.55;42.43;101695.38;5019336;28;20386;-36
2024/01/20 01:42:56;;;;;;;;;;;11.40;39.80;;;11.53;42.32;101680.78;5018782;28;19931;-36
2024/01/20 01:45:25;;;;;;;;;;;11.40;39.80;;;11.55;42.81;101684.44;5018307;28;19925;-36
2024/01/20 01:47:53;;;;;;;;;;;11.40;39.80;;;11.52;42.62;101684.00;5019748;28;19973;-37
2024/01/20 01:50:21;;;;;;;;;;;11.40;39.80;;;11.55;42.16;101689.47;5019843;28;19936;-36
2024/01/20 01:52:51;;;;;;;;;;;11.40;39.70;;;11.50;42.40;101691.31;5017657;28;19971;-36
2024/01/20 01:55:19;;;;;;;;;;;11.40;39.80;;;11.53;42.48;101695.84;5018723;28;20028;-37
2024/01/20 01:57:47;;;;;;;;;;;11.40;39.80;;;11.55;42.56;101704.53;5018542;28;20032;-38
2024/01/20 02:00:15;;;;;;;;;;;11.40;39.70;;;11.54;42.67;101698.59;5018664;28;19980;-36
2024/01/20 02:02:43;;;;;;;;;;;11.40;39.80;;;11.53;42.84;101690.84;5017411;28;19926;-37
2024/01/20 02:05:11;;;;;;;;;;;11.40;39.80;;;11.55;42.91;101697.00;5019043;28;19953;-37
2024/01/20 02:07:39;;;;;;;;;;;11.40;39.80;;;11.56;42.78;101696.31;5017918;28;20016;-37
2024/01/20 02:10:09;;;;;;;;;;;11.40;39.70;;;11.54;42.88;101692.66;5018404;28;20024;-36
2024/01/20 02:12:37;;;;;;;;;;;11.40;39.70;;;11.57;42.75;101683.06;5017740;28;20020;-36
2024/01/20 02:15:06;;;;;;;;;;;11.40;39.70;;;11.56;42.71;101686.25;5017042;28;19931;-38
2024/01/20 02:17:34;;;;;;;;;;;11.40;39.70;;;11.55;42.50;101686.94;5014474;28;19929;-37
2024/01/20 02:20:02;;;;;;;;;;;11.40;39.70;;;11.58;42.84;101684.84;5014892;28;19937;-37
2024/01/20 02:22:32;;;;;;;;;;;11.40;39.70;;;11.56;42.32;101676.22;5014089;28;19998;-37
2024/01/20 02:25:00;;;;;;;;;;;11.40;39.60;;;11.61;42.56;101690.34;5014547;28;20003;-37
2024/01/20 02:27:28;;;;;;;;;;;11.40;40.20;;;11.56;42.73;101688.78;5015137;28;19999;-37
2024/01/20 02:29:56;;;;;;;;;;;11.40;39.60;;;11.61;42.73;101690.34;5006771;28;19925;-36
2024/01/20 02:32:24;;;;;;;;;;;11.40;39.70;;;11.62;42.15;101689.66;5015035;28;19969;-36
2024/01/20 02:34:52;;;;;;;;;;;11.40;39.60;;;11.58;42.42;101689.88;5016688;28;19929;-36
2024/01/20 02:37:20;;;;;;;;;;;11.40;39.60;;;11.58;42.16;101685.78;5018292;28;20016;-36
2024/01/20 02:39:49;;;;;;;;;;;11.40;39.60;;;11.60;42.25;101688.50;5017144;28;20001;-37
2024/01/20 02:42:17;;;;;;;;;;;11.40;39.70;;;11.59;42.22;101691.69;5017788;28;20016;-36
2024/01/20 02:44:45;;;;;;;;;;;11.40;39.60;;;11.57;42.54;101688.97;5018179;28;19925;-36
2024/01/20 02:47:13;;;;;;;;;;;11.40;39.60;;;11.61;42.65;101696.25;5020027;28;19925;-38
2024/01/20 02:49:41;;;;;;;;;;;11.40;39.50;;;11.61;42.62;101695.34;5020940;28;20031;-37
2024/01/20 02:52:09;;;;;;;;;;;11.40;39.60;;;11.59;42.14;101691.69;5020601;28;20377;-37
2024/01/20 02:54:37;;;;;;;;;;;11.40;39.50;;;11.60;42.38;101691.00;5022171;28;20040;-38
2024/01/20 02:57:06;;;;;;;;;;;11.40;39.50;;;11.61;42.47;101696.25;5020548;28;19932;-37
2024/01/20 02:59:34;;;;;;;;;;;11.40;39.50;;;11.59;42.52;101691.69;5021320;28;19930;-38
2024/01/20 03:02:02;;;;;;;;;;;11.40;39.50;;;11.59;42.47;101701.75;5022403;28;19929;-37
2024/01/20 03:04:30;;;;;;;;;;;11.40;39.50;;;11.57;42.66;101703.16;5014200;28;20389;-34
2024/01/20 03:06:58;;;;;;;;;;;11.40;39.50;;;11.59;42.14;101701.75;5013265;28;19949;-33
2024/01/20 03:09:26;;;;;;;;;;;11.40;39.50;;;11.56;42.52;101698.81;5013297;28;19925;-34
2024/01/20 03:11:54;;;;;;;;;;;11.40;39.50;;;11.55;42.56;101699.50;5012568;28;19926;-36
2024/01/20 03:14:23;;;;;;;;;;;11.40;39.60;;;11.57;42.68;101705.66;5012884;28;19980;-34
2024/01/20 03:16:51;;;;;;;;;;;11.40;39.50;;;11.59;42.57;101707.69;5012859;28;19925;-34
2024/01/20 03:19:19;;;;;;;;;;;11.40;39.50;;;11.57;42.35;101703.16;5012967;28;19925;-34
2024/01/20 03:21:47;;;;;;;;;;;11.40;39.50;;;11.57;42.49;101703.16;5012500;28;20317;-34
2024/01/20 03:24:18;;;;;;;;;;;11.40;39.50;;;11.57;42.05;101708.16;5012971;28;19980;-34
2024/01/20 03:26:46;;;;;;;;;;;11.40;39.50;;;11.59;42.65;101711.78;5012812;28;19933;-34
2024/01/20 03:29:14;;;;;;;;;;;11.40;39.50;;;11.55;42.93;101709.53;5013088;28;20214;-34
2024/01/20 03:31:43;;;;;;;;;;;11.40;39.50;;;11.56;42.58;101716.38;5012109;28;20412;-34
2024/01/20 03:34:11;;;;;;;;;;;11.40;39.60;;;11.56;42.80;101711.38;5012718;28;19984;-34
2024/01/20 03:36:39;;;;;;;;;;;11.40;39.50;;;11.57;43.03;101713.19;5012823;28;20282;-34
2024/01/20 03:39:07;;;;;;;;;;;11.40;39.60;;;11.56;42.23;101716.38;5012620;28;20008;-34
2024/01/20 03:41:35;;;;;;;;;;;11.40;39.60;;;11.55;42.80;101709.53;5012124;28;20020;-34
2024/01/20 03:44:03;;;;;;;;;;;11.40;39.50;;;11.59;42.12;101716.81;5012417;28;19987;-34
2024/01/20 03:46:31;;;;;;;;;;;11.40;39.50;;;11.55;42.31;101709.53;5012574;28;19936;-34
2024/01/20 03:49:00;;;;;;;;;;;11.40;39.60;;;11.54;42.63;101717.75;5012772;28;20393;-34
2024/01/20 03:51:29;;;;;;;;;;;11.40;39.60;;;11.56;42.55;101716.38;5012083;28;19971;-34
2024/01/20 03:53:57;;;;;;;;;;;11.40;39.60;;;11.54;42.47;101722.78;5012446;28;19926;-34
2024/01/20 03:56:25;;;;;;;;;;;11.40;39.60;;;11.55;42.99;101728.03;5012572;28;20400;-34
2024/01/20 03:58:52;;;;;;;;;;;11.40;39.60;;;11.59;43.06;101726.84;5012098;28;19926;-34
2024/01/20 04:01:20;;;;;;;;;;;11.40;39.60;;;11.56;43.03;101726.44;5012118;28;19925;-34
2024/01/20 04:03:48;;;;;;;;;;;11.40;39.60;;;11.56;42.35;101726.44;5011631;28;19977;-34
2024/01/20 04:06:18;;;;;;;;;;;11.40;39.60;;;11.53;42.53;101721.88;5012505;28;20310;-34
2024/01/20 04:08:46;;;;;;;;;;;11.40;39.60;;;11.57;42.30;101729.13;5012239;28;19965;-34
2024/01/20 04:11:14;;;;;;;;;;;11.40;39.60;;;11.58;42.81;101730.03;5011562;28;20424;-34
2024/01/20 04:13:43;;;;;;;;;;;11.40;39.60;;;11.56;42.69;101728.94;5011927;28;20024;-34
2024/01/20 04:16:11;;;;;;;;;;;11.40;39.60;;;11.56;42.37;101736.47;5012241;28;19925;-34
2024/01/20 04:18:39;;;;;;;;;;;11.40;39.60;;;11.59;43.08;101742.81;5012229;28;19932;-34
2024/01/20 04:21:07;;;;;;;;;;;11.40;39.60;;;11.57;42.35;101748.34;5011647;28;19930;-34
2024/01/20 04:23:36;;;;;;;;;;;11.40;39.60;;;11.62;42.49;101734.84;5012624;28;20333;-34
2024/01/20 04:26:05;;;;;;;;;;;11.40;39.60;;;11.58;42.53;101732.56;5004249;28;19975;-34
2024/01/20 04:28:33;;;;;;;;;;;11.40;39.60;;;11.60;42.84;101743.72;5012307;28;19932;-34
2024/01/20 04:31:01;;;;;;;;;;;11.40;39.60;;;11.62;42.01;101742.34;5011368;28;20021;-34
2024/01/20 04:33:29;;;;;;;;;;;11.40;39.50;;;11.61;42.44;101748.06;5012295;28;19925;-34
2024/01/20 04:35:58;;;;;;;;;;;11.40;39.60;;;11.61;42.38;101756.50;5012002;28;19933;-34
2024/01/20 04:38:26;;;;;;;;;;;11.40;39.50;;;11.62;42.02;101763.34;5012088;28;19925;-34
2024/01/20 04:40:56;;;;;;;;;;;11.40;39.50;;;11.62;42.56;101762.44;5011606;28;19929;-34
2024/01/20 04:43:24;;;;;;;;;;;11.50;39.60;;;11.62;42.07;101757.41;5012159;28;19976;-34
2024/01/20 04:45:52;;;;;;;;;;;11.50;39.60;;;11.63;42.54;101759.25;5011876;28;20412;-34
2024/01/20 04:48:19;;;;;;;;;;;11.50;39.50;;;11.65;42.42;101752.81;5012127;28;20564;-34
2024/01/20 04:50:48;;;;;;;;;;;11.40;39.40;;;11.62;42.75;101758.34;5012057;28;20386;-34
2024/01/20 04:53:16;;;;;;;;;;;11.50;39.50;;;11.60;42.56;101758.78;5011957;28;19979;-34
2024/01/20 04:55:44;;;;;;;;;;;11.50;39.50;;;11.62;42.52;101762.44;5011898;28;19964;-34
2024/01/20 04:58:13;;;;;;;;;;;11.40;39.40;;;11.63;42.60;101764.28;5012361;28;19932;-35
2024/01/20 05:00:41;;;;;;;;;;;11.50;39.50;;;11.64;41.98;101761.03;5012086;28;19961;-35
2024/01/20 05:03:09;;;;;;;;;;;11.50;39.50;;;11.63;42.34;101769.28;5012345;28;19925;-35
2024/01/20 05:05:37;;;;;;;;;;;11.40;39.50;;;11.61;42.70;101775.69;5014432;28;19979;-35
2024/01/20 05:08:05;;;;;;;;;;;11.40;39.50;;;11.60;42.56;101778.88;5006584;28;19930;-35
2024/01/20 05:10:34;;;;;;;;;;;11.40;39.50;;;11.62;42.72;101780.03;5014283;28;19925;-35
2024/01/20 05:13:03;;;;;;;;;;;11.40;39.50;;;11.64;42.05;101786.16;5011123;28;19969;-35
2024/01/20 05:15:33;;;;;;;;;;;11.40;39.50;;;11.61;43.03;101790.75;5012444;28;19948;-35
2024/01/20 05:18:01;;;;;;;;;;;11.50;39.50;;;11.63;42.83;101794.41;5015168;28;20325;-35
2024/01/20 05:20:29;;;;;;;;;;;11.50;39.50;;;11.62;42.95;101802.59;5015729;28;19932;-35
2024/01/20 05:22:57;;;;;;;;;;;11.50;39.50;;;11.61;41.91;101796.69;5014464;28;19925;-35
2024/01/20 05:25:25;;;;;;;;;;;11.50;39.40;;;11.62;42.53;101817.66;5015152;28;19929;-35
2024/01/20 05:27:54;;;;;;;;;;;11.50;39.50;;;11.63;42.08;101814.47;5015224;28;19932;-35
2024/01/20 05:30:22;;;;;;;;;;;11.50;39.50;;;11.61;42.35;101805.81;5014978;28;19936;-35
2024/01/20 05:32:51;;;;;;;;;;;11.50;39.50;;;11.63;42.15;101814.47;5014341;28;20377;-35
2024/01/20 05:35:19;;;;;;;;;;;11.40;39.40;;;11.62;42.25;101827.72;5015941;28;19964;-35
2024/01/20 05:37:47;;;;;;;;;;;11.50;39.50;;;11.62;42.43;101822.69;5015215;28;19932;-35
2024/01/20 05:40:15;;;;;;;;;;;11.40;39.50;;;11.61;42.00;101825.88;5014798;28;19929;-35
2024/01/20 05:42:43;;;;;;;;;;;11.40;39.40;;;11.60;42.69;101834.09;5014170;28;20005;-35
2024/01/20 05:45:13;;;;;;;;;;;11.50;39.50;;;11.63;42.33;101839.59;5014553;28;19932;-35
2024/01/20 05:47:41;;;;;;;;;;;11.50;39.50;;;11.61;42.53;101836.84;5015177;28;20012;-35
2024/01/20 05:50:11;;;;;;;;;;;11.50;39.50;;;11.65;42.87;101845.72;5014809;28;19932;-35
2024/01/20 05:52:39;;;;;;;;;;;11.50;39.50;;;11.65;42.78;101848.22;5014121;28;19925;-35
2024/01/20 05:55:08;;;;;;;;;;;11.50;39.50;;;11.62;42.45;101847.78;5006212;28;20393;-35
2024/01/20 05:57:36;;;;;;;;;;;11.50;39.50;;;11.63;42.79;101849.63;5014465;28;19929;-35
2024/01/20 06:00:05;;;;;;;;;;;11.50;39.40;;;11.64;41.81;101856.44;5014487;28;19937;-35
2024/01/20 06:02:33;;;;;;;;;;;11.50;39.50;;;11.66;42.29;101855.06;5013821;28;19949;-35
2024/01/20 06:05:01;;;;;;;;;;;11.50;39.40;;;11.66;42.49;101850.06;5014354;28;19925;-35
2024/01/20 06:07:30;;;;;;;;;;;11.50;39.40;;;11.67;42.22;101851.88;5014274;28;20004;-35
2024/01/20 06:09:58;;;;;;;;;;;11.50;39.40;;;11.66;41.98;101852.56;5014007;28;20433;-35
2024/01/20 06:12:26;;;;;;;;;;;11.50;39.40;;;11.65;42.01;101854.16;5013731;28;19980;-35
2024/01/20 06:14:54;;;;;;;;;;;11.50;39.40;;;11.67;42.82;101861.91;5013802;28;19933;-35
2024/01/20 06:17:22;;;;;;;;;;;11.50;39.40;;;11.67;42.86;101861.91;5014230;28;19976;-35
2024/01/20 06:19:50;;;;;;;;;;;11.50;39.40;;;11.69;42.64;101860.56;5013911;28;19933;-35
2024/01/20 06:22:18;;;;;;;;;;;11.50;39.40;;;11.69;42.53;101858.03;5013244;28;20409;-35
2024/01/20 06:24:47;;;;;;;;;;;11.50;39.30;;;11.67;42.01;101866.94;5013741;28;19930;-35
2024/01/20 06:27:15;;;;;;;;;;;11.50;39.30;;;11.67;41.98;101866.94;5013462;28;20385;-35
2024/01/20 06:29:43;;;;;;;;;;;11.50;39.30;;;11.69;42.56;101860.56;5014536;28;19953;-35
2024/01/20 06:32:11;;;;;;;;;;;11.50;39.30;;;11.67;42.40;101867.84;5005584;28;19925;-35
2024/01/20 06:34:39;;;;;;;;;;;11.50;39.30;;;11.67;41.89;101866.94;5013855;28;19925;-35
2024/01/20 06:37:07;;;;;;;;;;;11.50;39.30;;;11.66;42.32;101865.13;5013523;28;19933;-35
2024/01/20 06:39:39;;;;;;;;;;;11.50;39.30;;;11.67;42.43;101869.44;5013820;28;19929;-35
2024/01/20 06:42:08;;;;;;;;;;;11.50;39.40;;;11.67;42.66;101876.97;5013116;28;19932;-35
2024/01/20 06:44:36;;;;;;;;;;;11.50;39.40;;;11.66;42.50;101880.19;5013993;28;19991;-35
2024/01/20 06:47:06;;;;;;;;;;;11.50;39.40;;;11.66;42.83;101880.19;5013882;28;20308;-35
2024/01/20 06:49:34;;;;;;;;;;;11.50;39.40;;;11.65;42.70;101881.78;5013497;28;19983;-35
2024/01/20 06:52:03;;;;;;;;;;;11.50;39.40;;;11.67;42.32;101882.91;5013165;28;19935;-36
2024/01/20 06:54:31;;;;;;;;;;;11.50;39.40;;;11.65;42.20;101888.41;5013066;28;20409;-35
2024/01/20 06:56:59;;;;;;;;;;;11.50;39.30;;;11.67;41.67;101894.56;5013294;28;19937;-35
2024/01/20 06:59:28;;;;;;;;;;;11.50;39.30;;;11.65;42.09;101898.44;5013475;28;19929;-35
2024/01/20 07:01:56;;;;;;;;;;;11.50;39.40;;;11.64;42.71;101896.59;5012589;28;19930;-35
2024/01/20 07:04:24;;;;;;;;;;;11.50;39.30;;;11.62;42.81;101887.97;5012982;28;20015;-35
2024/01/20 07:06:52;;;;;;;;;;;11.50;39.30;;;11.62;42.42;101890.47;5013699;28;19925;-35
2024/01/20 07:09:20;;;;;;;;;;;11.50;39.40;;;11.62;42.45;101887.97;5013929;28;19955;-35
2024/01/20 07:11:48;;;;;;;;;;;11.50;39.40;;;11.63;42.32;101884.78;5012732;28;20344;-35
2024/01/20 07:14:17;;;;;;;;;;;11.50;39.30;;;11.63;42.53;101884.78;5010502;28;20198;-35
2024/01/20 07:16:46;;;;;;;;;;;11.50;39.30;;;11.64;42.28;101886.56;5038016;22;19925;-34
2024/01/20 07:19:14;;;;;;;;;;;11.50;39.30;;;11.61;42.17;101892.06;5028618;28;20365;-36
2024/01/20 07:21:42;;;;;;;;;;;11.50;39.40;;;11.59;42.55;101887.50;5033828;28;19929;-36
2024/01/20 07:24:10;;;;;;;;;;;11.50;39.40;;;11.62;42.27;101898.00;5033509;28;19925;-35
2024/01/20 07:26:38;;;;;;;;;;;11.40;39.30;;;11.59;42.19;101892.53;5032915;28;19928;-36
2024/01/20 07:29:06;;;;;;;;;;;11.40;39.30;;;11.63;42.19;101903.22;5033075;28;19925;-36
2024/01/20 07:31:34;;;;;;;;;;;11.50;39.40;;;11.64;42.41;101896.59;5032253;28;20411;-36
2024/01/20 07:34:03;;;;;;;;;;;11.50;39.40;;;11.66;42.84;101900.25;5032735;28;19968;-35
2024/01/20 07:36:31;;;;;;;;;;;11.50;39.40;;;11.65;42.17;101903.47;5032921;28;19932;-35
2024/01/20 07:38:59;;;;;;;;;;;11.50;39.30;;;11.63;41.67;101904.84;5031756;28;20015;-35
2024/01/20 07:41:27;;;;;;;;;;;11.50;39.30;;;11.62;42.17;101903.94;5032000;28;19933;-33
2024/01/20 07:43:55;;;;;;;;;;;11.50;39.30;;;11.64;42.17;101896.59;5032876;28;19925;-34
2024/01/20 07:46:23;;;;;;;;;;;11.50;39.30;;;11.65;42.48;101913.50;5032666;28;19929;-33
2024/01/20 07:48:51;;;;;;;;;;;11.50;39.30;;;11.64;42.20;101907.56;5032366;28;19972;-34
2024/01/20 07:51:20;;;;;;;;;;;11.50;39.30;;;11.65;42.48;101909.38;5032118;28;19925;-34
2024/01/20 07:53:48;;;;;;;;;;;11.50;39.30;;;11.65;42.18;101914.41;5032372;28;19925;-34
2024/01/20 07:56:16;;;;;;;;;;;11.50;39.30;;;11.67;41.81;101912.13;5032059;28;19925;-36
2024/01/20 07:58:44;;;;;;;;;;;11.50;39.20;;;11.65;41.77;101916.94;5032508;28;19975;-35
2024/01/20 08:01:12;;;;;;;;;;;11.50;39.30;;;11.65;42.31;101909.38;5031911;28;20388;-34
2024/01/20 08:03:40;;;;;;;;;;;11.50;39.20;;;11.64;42.31;101916.69;5032527;28;20304;-37
2024/01/20 08:06:08;;;;;;;;;;;11.50;39.30;;;11.67;42.13;101914.63;5031990;28;19925;-35
2024/01/20 08:08:37;;;;;;;;;;;11.50;39.20;;;11.67;41.81;101919.66;5031997;28;19925;-35
2024/01/20 08:11:05;;;;;;;;;;;11.50;39.20;;;11.67;41.98;101922.19;5031178;28;19972;-35
2024/01/20 08:13:33;;;;;;;;;;;11.50;39.20;;;11.68;42.39;101917.38;5031909;28;20396;-36
2024/01/20 08:16:01;;;;;;;;;;;11.50;39.20;;;11.68;42.18;101926.50;5031741;28;19983;-36
2024/01/20 08:18:29;;;;;;;;;;;11.50;39.20;;;11.64;42.14;101924.22;5032488;28;19925;-36
2024/01/20 08:20:57;;;;;;;;;;;11.50;39.20;;;11.67;41.88;101929.72;5031533;28;19929;-34
2024/01/20 08:23:25;;;;;;;;;;;11.50;39.20;;;11.64;41.83;101931.75;5032196;28;19968;-36
2024/01/20 08:25:54;;;;;;;;;;;11.50;39.20;;;11.65;41.85;101928.56;5032608;28;20023;-34
2024/01/20 08:28:22;;;;;;;;;;;11.50;39.20;;;11.67;41.83;101937.25;5032745;28;19964;-34
2024/01/20 08:30:50;;;;;;;;;;;11.50;39.20;;;11.68;42.32;101939.06;5032420;28;19969;-34
2024/01/20 08:33:18;;;;;;;;;;;11.50;39.30;;;11.68;42.33;101939.06;5032583;28;19925;-35
2024/01/20 08:35:46;;;;;;;;;;;11.50;39.30;;;11.68;42.75;101945.00;5032465;28;19932;-35
2024/01/20 08:38:14;;;;;;;;;;;11.50;39.30;;;11.72;42.76;101950.44;5032461;28;19931;-35
2024/01/20 08:40:43;;;;;;;;;;;11.50;39.30;;;11.72;42.08;101960.50;5032343;28;20019;-35
2024/01/20 08:43:12;;;;;;;;;;;11.60;39.40;;;11.72;42.40;101952.97;5031739;28;20059;-35
2024/01/20 08:45:40;;;;;;;;;;;11.60;39.40;;;11.73;42.51;101943.16;5031927;28;20205;-35
2024/01/20 08:48:09;;;;;;;;;;;11.60;39.40;;;11.66;42.18;101941.34;5031698;28;19931;-34
2024/01/20 08:50:37;;;;;;;;;;;11.60;39.40;;;11.77;42.49;101950.47;5034014;28;20012;-35
2024/01/20 08:53:05;;;;;;;;;;;11.60;39.40;;;11.81;42.42;101962.81;5034747;28;19929;-36
2024/01/20 08:55:32;;;;;;;;;;;11.60;39.30;;;11.81;41.87;101962.81;5035439;28;20019;-36
2024/01/20 08:58:01;;;;;;;;;;;11.60;39.30;;;11.79;41.54;101949.09;5035393;28;20408;-34
2024/01/20 09:00:31;;;;;;;;;;;11.60;39.30;;;11.85;42.20;101960.03;5035597;28;19932;-37
2024/01/20 09:02:59;;;;;;;;;;;11.70;39.40;;;11.87;42.55;101962.78;5035036;28;20389;-36
2024/01/20 09:05:27;;;;;;;;;;;11.70;39.40;;;11.84;41.75;101968.25;5035892;28;19925;-36
2024/01/20 09:08:09;;;;;;;;;;;11.70;39.40;;;11.85;42.50;101966.66;5035501;28;20015;-34
2024/01/20 09:10:37;;;;;;;;;;;11.70;39.30;;;11.92;42.06;101975.31;5035225;28;19932;-35
2024/01/20 09:13:05;;;;;;;;;;;11.80;39.40;;;11.92;41.88;101980.34;5034884;28;20024;-35
2024/01/20 09:15:34;;;;;;;;;;;11.80;39.40;;;11.91;41.94;101976.00;5034669;28;19933;-35
2024/01/20 09:18:03;;;;;;;;;;;11.80;39.30;;;11.96;42.15;101975.06;5035868;28;19971;-35
2024/01/20 09:20:31;;;;;;;;;;;11.80;40.00;;;11.98;41.58;101978.72;5035720;28;20027;-35
2024/01/20 09:23:00;;;;;;;;;;;11.80;39.30;;;11.96;41.65;101980.09;5034854;28;20384;-35
2024/01/20 09:25:28;;;;;;;;;;;11.80;39.40;;;11.97;41.65;101981.91;5035455;28;19960;-36
2024/01/20 09:27:56;;;;;;;;;;;11.80;39.40;;;11.94;42.04;101976.47;5034823;28;20462;-36
2024/01/20 09:30:24;;;;;;;;;;;11.80;39.40;;;11.99;42.12;101980.53;5035649;28;19998;-36
2024/01/20 09:32:53;;;;;;;;;;;11.80;39.30;;;11.99;41.97;101975.53;5034497;28;20385;-36
2024/01/20 09:35:21;;;;;;;;;;;11.80;39.40;;;11.98;41.59;101971.19;5027640;28;19925;-36
2024/01/20 09:37:49;;;;;;;;;;;11.80;39.30;;;12.01;41.97;101979.16;5035064;28;19932;-33
2024/01/20 09:40:17;;;;;;;;;;;11.90;40.00;;;12.04;42.04;101976.19;5034502;28;19925;-36
2024/01/20 09:42:45;;;;;;;;;;;11.90;39.40;;;12.07;42.38;101980.06;5034788;28;19939;-36
2024/01/20 09:45:13;;;;;;;;;;;11.90;39.40;;;12.02;42.07;101970.94;5034819;28;20177;-37
2024/01/20 09:47:41;;;;;;;;;;;11.90;39.40;;;12.08;42.23;101981.84;5035316;28;20274;-37
2024/01/20 09:50:11;;;;;;;;;;;11.90;39.40;;;12.06;42.24;101978.25;5034630;28;19925;-36
2024/01/20 09:52:43;;;;;;;;;;;11.90;39.40;;;12.05;41.87;101985.53;5034031;28;19925;-36
2024/01/20 09:55:14;;;;;;;;;;;11.90;39.40;;;12.07;42.54;101985.09;5034187;28;20364;-35
2024/01/20 09:57:42;;;;;;;;;;;11.90;39.30;;;12.06;41.81;101983.25;5035067;28;20304;-33
2024/01/20 10:00:11;;;;;;;;;;;12.00;39.50;;;12.13;42.37;101989.19;5035292;28;19932;-36
2024/01/20 10:02:39;;;;;;;;;;;12.00;39.40;;;11.90;42.01;101949.06;5033715;28;19932;-36
2024/01/20 10:05:11;;;;;;;;;;;12.00;39.40;;;12.13;41.77;101984.16;5034561;28;20036;-35
2024/01/20 10:07:39;;;;;;;;;;;12.00;39.40;;;12.15;42.20;101992.78;5034868;28;19931;-35
2024/01/20 10:10:09;;;;;;;;;;;12.00;39.40;;;12.18;41.85;101988.22;5035386;28;19931;-35
2024/01/20 10:12:37;;;;;;;;;;;12.00;39.40;;;12.17;41.73;101992.34;5035000;28;20357;-35
2024/01/20 10:15:06;;;;;;;;;;;12.00;39.30;;;12.15;42.26;101992.78;5035708;28;19932;-36
2024/01/20 10:17:37;;;;;;;;;;;12.00;39.40;;;12.15;42.05;101987.78;5035216;28;19979;-35
2024/01/20 10:20:06;;;;;;;;;;;12.00;39.40;;;12.15;41.80;101982.75;5035228;28;20384;-36
2024/01/20 10:22:35;;;;;;;;;;;12.00;39.40;;;12.15;42.22;101985.25;5035192;28;19935;-36
2024/01/20 10:25:06;;;;;;;;;;;12.00;39.40;;;12.18;42.54;101993.25;5035524;28;19975;-35
2024/01/20 10:27:34;;;;;;;;;;;12.00;39.50;;;12.18;42.35;101993.25;5035703;28;20021;-35
2024/01/20 10:30:02;;;;;;;;;;;12.00;39.50;;;12.14;41.77;101985.97;5035505;28;19971;-34
2024/01/20 10:32:30;;;;;;;;;;;12.00;39.60;;;12.14;41.96;101980.94;5038500;28;19929;-35
2024/01/20 10:35:18;;;;;;;;;;;12.00;39.60;;;12.17;42.34;101986.41;5037895;28;19925;-35
2024/01/20 10:37:50;;;;;;;;;;;12.00;39.60;;;12.11;42.74;101980.50;5034820;28;19929;-34
2024/01/20 10:40:18;;;;;;;;;;;12.00;39.60;;;12.09;41.86;101983.69;5034632;28;20361;-35
2024/01/20 10:42:47;;;;;;;;;;;11.90;39.60;;;12.09;42.03;101973.63;5036444;28;19933;-34
2024/01/20 10:45:16;;;;;;;;;;;11.90;39.60;;;12.12;41.88;101974.78;5040333;28;19981;-36
2024/01/20 10:47:50;;;;;;;;;;;11.90;39.60;;;12.05;42.26;101960.41;5049128;28;19955;-35
2024/01/20 10:50:18;;;;;;;;;;;11.90;39.60;;;12.12;42.56;101979.81;5036750;28;20381;-34
2024/01/20 10:52:47;;;;;;;;;;;11.90;39.70;;;12.05;42.06;101971.38;5034263;28;19940;-35
2024/01/20 10:55:15;;;;;;;;;;;11.90;39.70;;;12.12;42.19;101987.34;5038050;28;19925;-35
2024/01/20 10:57:43;;;;;;;;;;;11.90;39.70;;;12.11;41.83;101990.53;5036610;28;19979;-35
2024/01/20 11:00:12;;;;;;;;;;;11.90;39.60;;;12.09;42.81;101993.75;5034770;28;20288;-35
2024/01/20 11:02:40;;;;;;;;;;;11.90;39.70;;;12.07;41.93;101995.13;5033806;28;19971;-35
2024/01/20 11:05:18;;;;;;;;;;;11.90;39.70;;;12.07;42.35;101990.13;5033632;28;19932;-35
2024/01/20 11:07:57;;;;;;;;;;;11.90;39.70;;;12.12;42.58;101999.91;5035867;28;20383;-35
2024/01/20 11:10:25;;;;;;;;;;;11.90;39.70;;;12.11;42.43;101995.56;5026148;28;20016;-34
2024/01/20 11:13:00;;;;;;;;;;;11.90;39.60;;;12.08;42.33;101999.44;5033715;28;20432;-34
2024/01/20 11:15:31;;;;;;;;;;;11.90;39.70;;;12.06;42.51;101995.81;5026991;28;20015;-35